Cambridge, United Kingdom

5:09 PM BST on October 22, 2014 (GMT +0100)
Craister Court, Cambridge | Change Station
CLOSE
Current Station
Personal Weather Station
Location: Cambridge, CAMBRIDGESHIRE
Elevation: 6 ft
Nearby Weather Stations

Elev 6 ft 52.23 °N, 0.13 °E | Updated 4 minutes ago

Overcast
Overcast
55.2 °F
Feels Like 55.2 °F
N
3.8
Wind Variable Wind from North
Gusts 5.4 mph

Today
High -- | Low -- °F
--% Chance of Precip.
Yesterday
High -- | Low -- °F
Precip. -- in
7:36 AM 5:50 PM
Waning Crescent, 2% visible
Pressure 30.19 in
Visibility 6.2 miles
Clouds Few 3800 ft
Overcast 5000 ft
Dew Point 47 °F
Humidity 75%
Rainfall 0.00 in
Snow Depth Not available.
UV 0 out of 12
Pollen Not available.
Air Quality Not available.
Flu Activity Not available.
METAR EGUN 221558Z AUTO 26010KT 9999 FEW038 OVC050 12/10 A3019 RMK AO2 SLPNO T01220104 $

More Conditions Fewer Conditions

Pressure 30.19 in
Visibility 6.2 miles
Clouds Few 3800 ft
Overcast 5000 ft
Dew Point 47 °F
Humidity 75%
Rainfall 0.00 in
Snow Depth Not available.
UV 0 out of 12
Pollen Not available.
Air Quality Not available.
Flu Activity Not available.
METAR EGUN 221558Z AUTO 26010KT 9999 FEW038 OVC050 12/10 A3019 RMK AO2 SLPNO T01220104 $

More Conditions Fewer Conditions

10-Day Weather Forecast

Almanac

Astronomy

Oct. 22, 2014 Rise Set
Actual Time 7:36 AM BST 5:50 PM BST
Civil Twilight 7:01 AM BST 6:25 PM BST
Nautical Twilight 6:22 AM BST 7:04 PM BST
Astronomical Twilight 5:42 AM BST 7:43 PM BST
Moon 5:52 AM BST 5:16 PM BST
Length of Visible Light 11h 23m
Length of Day
10h 13m
Tomorrow will be 3m 51s shorter.
Waning Crescent, 2% of the Moon is Illuminated
Today
Waning Crescent
Oct 23
New
Oct 30
First Quarter
Nov 6
Full
Nov 14
Last Quarter

Today's Extremes

Country Highs Country Lows

Community

WunderPhotos

Upload Photos

1,763,956 photos uploaded!

Nearby

Snow Depth

Not available.

Earthquake Activity

City Distance Mag. Time & Date
No recent earthquake activity has been reported nearby.
Minimum magnitude displayed is 2.5.

Coastal Water Temperatures

Place Temperature
No Stations Reporting

Nearby Weather Stations